createdAt,value
2023-05-05T00:01:02.182Z,16.17
2023-05-05T00:03:29.652Z,16.03
2023-05-05T00:05:56.816Z,16.10
2023-05-05T00:08:23.834Z,16.07
2023-05-05T00:10:52.814Z,16.02
2023-05-05T00:13:21.095Z,16.01
2023-05-05T00:15:50.663Z,15.98
2023-05-05T00:18:18.509Z,15.86
2023-05-05T00:20:47.180Z,15.92
2023-05-05T00:23:15.306Z,15.86
2023-05-05T00:25:42.213Z,15.85
2023-05-05T00:28:10.336Z,15.83
2023-05-05T00:30:37.438Z,15.83
2023-05-05T00:33:04.751Z,15.78
2023-05-05T00:35:31.721Z,15.73
2023-05-05T00:37:59.579Z,15.71
2023-05-05T00:40:26.769Z,15.72
2023-05-05T00:42:53.884Z,15.66
2023-05-05T00:45:20.871Z,15.68
2023-05-05T00:47:54.514Z,15.66
2023-05-05T00:50:25.164Z,15.62
2023-05-05T00:52:57.032Z,15.51
2023-05-05T00:55:24.175Z,15.57
2023-05-05T00:57:51.621Z,15.58
2023-05-05T01:00:18.446Z,15.57
2023-05-05T01:02:45.524Z,15.46
2023-05-05T01:05:13.734Z,15.49
2023-05-05T01:07:43.568Z,15.52
2023-05-05T01:10:24.786Z,15.47
2023-05-05T01:13:53.999Z,15.48
2023-05-05T01:16:34.525Z,15.45
2023-05-05T01:19:43.127Z,15.47
2023-05-05T01:22:13.856Z,15.43
2023-05-05T01:25:08.779Z,15.43
2023-05-05T01:28:18.420Z,15.46
2023-05-05T01:31:18.285Z,15.42
2023-05-05T01:33:49.987Z,15.37
2023-05-05T01:36:26.048Z,15.38
2023-05-05T01:38:59.568Z,15.39
2023-05-05T01:41:33.698Z,15.37
2023-05-05T01:44:05.358Z,15.33
2023-05-05T01:46:34.474Z,15.37
2023-05-05T01:49:01.421Z,15.35
2023-05-05T01:51:29.501Z,15.37
2023-05-05T01:54:07.723Z,15.35
2023-05-05T01:56:38.154Z,15.32
2023-05-05T01:59:06.980Z,15.28
2023-05-05T02:01:38.894Z,15.30
2023-05-05T02:04:09.723Z,15.21
2023-05-05T02:06:38.355Z,15.22
2023-05-05T02:09:06.634Z,15.26
2023-05-05T02:11:33.741Z,15.23
2023-05-05T02:14:02.288Z,15.21
2023-05-05T02:16:31.126Z,15.21
2023-05-05T02:19:02.332Z,15.19
2023-05-05T02:21:29.168Z,15.14
2023-05-05T02:23:56.018Z,15.14
2023-05-05T02:26:24.753Z,15.14
2023-05-05T02:29:33.098Z,15.13
2023-05-05T02:32:06.068Z,15.12
2023-05-05T02:34:38.492Z,15.09
2023-05-05T02:37:10.112Z,15.05
2023-05-05T02:39:59.067Z,15.03
2023-05-05T02:42:36.047Z,14.98
2023-05-05T02:45:12.394Z,14.99
2023-05-05T02:47:39.279Z,14.97
2023-05-05T02:50:07.604Z,14.95
2023-05-05T02:52:35.182Z,14.91
2023-05-05T02:55:03.782Z,14.91
2023-05-05T02:58:06.806Z,14.74
2023-05-05T03:00:51.291Z,14.80
2023-05-05T03:03:30.598Z,14.85
2023-05-05T03:06:20.786Z,14.85
2023-05-05T03:09:03.368Z,14.84
2023-05-05T03:11:38.834Z,14.81
2023-05-05T03:14:13.999Z,14.76
2023-05-05T03:16:42.682Z,14.74
2023-05-05T03:19:13.373Z,14.70
2023-05-05T03:21:40.850Z,14.73
2023-05-05T03:24:20.665Z,14.63
2023-05-05T03:26:49.388Z,14.66
2023-05-05T03:29:16.498Z,14.50
2023-05-05T03:31:43.488Z,14.64
2023-05-05T03:34:10.483Z,14.59
2023-05-05T03:36:37.432Z,14.61
2023-05-05T03:39:04.348Z,14.60
2023-05-05T03:41:31.203Z,14.61
2023-05-05T03:43:58.088Z,14.59
2023-05-05T03:46:25.077Z,14.57
2023-05-05T03:48:51.994Z,14.55
2023-05-05T03:51:18.865Z,14.54
2023-05-05T03:53:48.538Z,14.53
2023-05-05T03:56:15.436Z,14.53
2023-05-05T03:58:42.260Z,14.52
2023-05-05T04:01:09.135Z,14.46
2023-05-05T04:03:36.012Z,14.51
2023-05-05T04:06:03.013Z,14.45
2023-05-05T04:08:29.872Z,14.52
2023-05-05T04:10:57.457Z,14.50
2023-05-05T04:13:24.526Z,14.50
2023-05-05T04:15:51.437Z,14.47
2023-05-05T04:18:18.455Z,14.44
2023-05-05T04:20:45.648Z,14.48
2023-05-05T04:23:12.735Z,14.49
2023-05-05T04:25:39.640Z,14.48
2023-05-05T04:28:06.421Z,14.47
2023-05-05T04:30:33.300Z,14.49
2023-05-05T04:33:00.453Z,14.50
2023-05-05T04:35:27.348Z,14.50
2023-05-05T04:37:54.742Z,14.45
2023-05-05T04:40:21.626Z,14.45
2023-05-05T04:42:48.515Z,14.42
2023-05-05T04:45:15.589Z,14.47
2023-05-05T04:47:42.542Z,14.45
2023-05-05T04:50:11.249Z,14.48
2023-05-05T04:52:38.377Z,14.49
2023-05-05T04:55:06.154Z,14.52
2023-05-05T04:57:32.956Z,14.51
2023-05-05T05:00:01.481Z,14.51
2023-05-05T05:02:28.511Z,14.51
2023-05-05T05:04:55.391Z,14.49
2023-05-05T05:07:22.334Z,14.51
2023-05-05T05:09:49.220Z,14.44
2023-05-05T05:12:16.299Z,14.54
2023-05-05T05:14:43.172Z,14.56
2023-05-05T05:17:11.073Z,14.59
2023-05-05T05:19:37.950Z,14.60
2023-05-05T05:22:04.741Z,14.51
2023-05-05T05:24:31.535Z,14.58
2023-05-05T05:26:58.638Z,14.62
2023-05-05T05:29:26.919Z,14.64
2023-05-05T05:31:53.833Z,14.64
2023-05-05T05:34:20.708Z,14.63
2023-05-05T05:36:47.531Z,14.56
2023-05-05T05:39:14.325Z,14.64
2023-05-05T05:41:41.130Z,14.61
2023-05-05T05:44:08.025Z,14.66
2023-05-05T05:46:34.954Z,14.66
2023-05-05T05:49:01.860Z,14.63
2023-05-05T05:51:29.003Z,14.68
2023-05-05T05:53:58.199Z,14.71
2023-05-05T05:56:25.660Z,14.76
2023-05-05T05:58:52.567Z,14.73
2023-05-05T06:01:19.543Z,14.75
2023-05-05T06:03:46.674Z,14.81
2023-05-05T06:06:13.643Z,14.82
2023-05-05T06:08:40.546Z,14.81
2023-05-05T06:11:08.065Z,14.81
2023-05-05T06:13:35.050Z,14.93
2023-05-05T06:16:02.090Z,14.90
2023-05-05T06:18:29.001Z,14.98
2023-05-05T06:20:55.915Z,15.00
2023-05-05T06:23:22.834Z,15.07
2023-05-05T06:25:49.611Z,15.12
2023-05-05T06:28:16.566Z,15.09
2023-05-05T06:30:43.430Z,15.17
2023-05-05T06:33:10.423Z,15.24
2023-05-05T06:35:37.318Z,15.14
2023-05-05T06:38:04.285Z,15.32
2023-05-05T06:40:31.867Z,15.33
2023-05-05T06:42:58.698Z,15.36
2023-05-05T06:45:25.881Z,15.46
2023-05-05T06:47:52.804Z,15.40
2023-05-05T06:50:20.098Z,15.51
2023-05-05T06:52:46.962Z,15.53
2023-05-05T06:55:13.763Z,15.56
2023-05-05T06:57:40.575Z,15.69
2023-05-05T07:00:11.308Z,15.69
2023-05-05T07:02:38.646Z,15.74
2023-05-05T07:05:06.125Z,15.76
2023-05-05T07:07:32.990Z,15.83
2023-05-05T07:10:00.253Z,15.84
2023-05-05T07:12:33.410Z,15.86
2023-05-05T07:15:04.792Z,15.96
2023-05-05T07:17:36.456Z,15.97
2023-05-05T07:20:03.852Z,16.06
2023-05-05T07:22:30.814Z,16.08
2023-05-05T07:24:57.692Z,16.12
2023-05-05T07:27:24.732Z,16.14
2023-05-05T07:29:51.732Z,16.17
2023-05-05T07:32:18.644Z,16.18
2023-05-05T07:34:45.724Z,16.24
2023-05-05T07:37:13.186Z,16.29
2023-05-05T07:39:40.062Z,16.34
2023-05-05T07:42:07.377Z,16.38
2023-05-05T07:44:34.394Z,16.41
2023-05-05T07:47:01.360Z,16.51
2023-05-05T07:49:28.186Z,16.58
2023-05-05T07:51:55.375Z,16.63
2023-05-05T07:54:22.216Z,16.70
2023-05-05T07:56:49.125Z,16.75
2023-05-05T07:59:15.979Z,16.74
2023-05-05T08:01:42.781Z,16.79
2023-05-05T08:04:09.825Z,16.91
2023-05-05T08:06:36.807Z,16.98
2023-05-05T08:09:03.730Z,17.02
2023-05-05T08:11:30.551Z,17.04
2023-05-05T08:13:57.435Z,17.11
2023-05-05T08:16:24.409Z,17.10
2023-05-05T08:18:52.056Z,17.17
2023-05-05T08:21:18.943Z,17.23
2023-05-05T08:23:45.819Z,17.33
2023-05-05T08:26:12.623Z,17.37
2023-05-05T08:28:39.493Z,17.42
2023-05-05T08:31:06.888Z,17.48
2023-05-05T08:33:34.022Z,17.53
2023-05-05T08:36:01.016Z,17.59
2023-05-05T08:38:27.891Z,17.66
2023-05-05T08:40:54.709Z,17.88
2023-05-05T08:43:23.758Z,17.77
2023-05-05T08:45:51.761Z,17.66
2023-05-05T08:48:22.846Z,17.71
2023-05-05T08:50:57.285Z,17.77
2023-05-05T08:53:57.193Z,17.87
2023-05-05T08:56:27.633Z,17.84
2023-05-05T08:58:56.498Z,17.76
2023-05-05T09:01:23.570Z,17.83
2023-05-05T09:03:52.639Z,17.94
2023-05-05T09:06:25.566Z,18.04
2023-05-05T09:08:53.457Z,18.13
2023-05-05T09:11:21.536Z,18.21
2023-05-05T09:13:48.464Z,18.16
2023-05-05T09:16:15.596Z,18.09
2023-05-05T09:18:42.727Z,18.24
2023-05-05T09:21:25.949Z,18.08
2023-05-05T09:24:12.330Z,18.03
2023-05-05T09:26:44.794Z,17.98
2023-05-05T09:29:19.468Z,18.06
2023-05-05T09:32:11.147Z,17.96
2023-05-05T09:34:38.170Z,17.90
2023-05-05T09:37:06.299Z,17.97
2023-05-05T09:39:33.333Z,17.90
2023-05-05T09:42:00.426Z,17.94
2023-05-05T09:44:36.577Z,17.95
2023-05-05T09:47:07.215Z,17.93
2023-05-05T09:49:39.292Z,17.97
2023-05-05T09:52:17.698Z,17.92
2023-05-05T09:54:44.674Z,17.94
2023-05-05T09:57:32.362Z,18.00
2023-05-05T10:00:04.320Z,17.99
2023-05-05T10:02:38.524Z,18.10
2023-05-05T10:05:11.368Z,18.13
2023-05-05T10:07:41.233Z,18.15
2023-05-05T10:10:12.054Z,18.17
2023-05-05T10:12:39.752Z,18.21
2023-05-05T10:15:08.765Z,18.34
2023-05-05T10:20:21.068Z,18.41
2023-05-05T10:22:53.363Z,18.48
2023-05-05T10:25:52.022Z,18.44
2023-05-05T10:28:29.737Z,18.48
2023-05-05T10:30:59.140Z,18.48
2023-05-05T10:33:49.653Z,18.57
2023-05-05T10:36:16.790Z,18.58
2023-05-05T10:38:45.410Z,18.68
2023-05-05T10:41:15.143Z,18.67
2023-05-05T10:43:42.891Z,18.64
2023-05-05T10:46:10.628Z,18.67
2023-05-05T10:48:56.591Z,18.72
2023-05-05T10:51:44.346Z,18.81
2023-05-05T10:54:28.205Z,18.81
2023-05-05T10:56:55.670Z,18.81
2023-05-05T10:59:37.848Z,18.91
2023-05-05T11:02:43.463Z,18.83
2023-05-05T11:05:21.269Z,18.78
2023-05-05T11:07:51.063Z,18.79
2023-05-05T11:10:23.622Z,18.87
2023-05-05T11:13:10.910Z,18.85
2023-05-05T11:15:38.185Z,18.86
2023-05-05T11:18:07.994Z,18.87
2023-05-05T11:20:41.185Z,18.95
2023-05-05T11:23:08.028Z,18.97
2023-05-05T11:25:35.126Z,18.93
2023-05-05T11:28:30.927Z,18.77
2023-05-05T11:30:58.697Z,18.97
2023-05-05T11:33:39.259Z,19.04
2023-05-05T11:36:08.245Z,19.03
2023-05-05T11:39:06.053Z,19.05
2023-05-05T11:41:32.937Z,19.07
2023-05-05T11:44:20.970Z,19.08
2023-05-05T11:46:54.446Z,19.14
2023-05-05T11:49:35.299Z,19.14
2023-05-05T11:52:06.439Z,19.22
2023-05-05T11:54:36.094Z,19.26
2023-05-05T11:57:08.236Z,19.28
2023-05-05T11:59:37.372Z,19.33
2023-05-05T12:02:04.856Z,19.46
2023-05-05T12:04:32.137Z,19.72
2023-05-05T12:06:59.893Z,19.66
2023-05-05T12:09:27.438Z,19.68
2023-05-05T12:11:56.427Z,19.86
2023-05-05T12:14:24.941Z,19.87
2023-05-05T12:17:07.652Z,19.88
2023-05-05T12:19:44.901Z,20.00
2023-05-05T12:22:23.110Z,20.06
2023-05-05T12:25:05.201Z,20.13
2023-05-05T12:27:32.236Z,20.04
2023-05-05T12:30:13.880Z,20.08
2023-05-05T12:32:41.419Z,20.01
2023-05-05T12:35:09.727Z,20.01
2023-05-05T12:37:36.854Z,20.02
2023-05-05T12:40:06.235Z,20.01
2023-05-05T12:42:39.460Z,20.00
2023-05-05T12:45:09.771Z,19.95
2023-05-05T12:47:37.306Z,19.93
2023-05-05T12:50:04.417Z,19.94
2023-05-05T12:52:45.480Z,19.94
2023-05-05T12:55:13.032Z,19.93
2023-05-05T12:58:04.344Z,20.02
2023-05-05T13:00:31.628Z,20.04
2023-05-05T13:02:58.578Z,20.04
2023-05-05T13:05:33.508Z,20.01
2023-05-05T13:08:00.457Z,19.97
2023-05-05T13:10:28.214Z,19.96
2023-05-05T13:12:56.808Z,19.95
2023-05-05T13:15:24.985Z,19.95
2023-05-05T13:18:02.579Z,19.97
2023-05-05T13:20:29.807Z,19.97
2023-05-05T13:22:57.283Z,20.06
2023-05-05T13:25:24.283Z,20.04
2023-05-05T13:27:51.096Z,20.06
2023-05-05T13:30:18.077Z,20.07
2023-05-05T13:32:44.977Z,20.05
2023-05-05T13:35:14.018Z,19.95
2023-05-05T13:37:44.210Z,20.01
2023-05-05T13:40:13.308Z,20.02
2023-05-05T13:42:40.159Z,20.04
2023-05-05T13:45:07.847Z,20.08
2023-05-05T13:47:34.924Z,20.09
2023-05-05T13:50:01.904Z,20.11
2023-05-05T13:52:29.894Z,20.13
2023-05-05T13:54:58.568Z,20.22
2023-05-05T13:57:25.685Z,20.26
2023-05-05T13:59:52.494Z,20.15
2023-05-05T14:02:19.384Z,20.28
2023-05-05T14:04:46.317Z,20.35
2023-05-05T14:07:13.138Z,20.40
2023-05-05T14:09:39.937Z,20.40
2023-05-05T14:12:06.854Z,20.46
2023-05-05T14:14:34.378Z,20.43
2023-05-05T14:17:01.390Z,20.41
2023-05-05T14:19:28.249Z,20.46
2023-05-05T14:21:55.182Z,20.42
2023-05-05T14:24:22.002Z,20.35
2023-05-05T14:26:49.174Z,20.46
2023-05-05T14:29:16.071Z,20.44
2023-05-05T14:31:42.998Z,20.43
2023-05-05T14:34:09.818Z,20.41
2023-05-05T14:36:36.604Z,20.38
2023-05-05T14:39:03.451Z,20.39
2023-05-05T14:41:30.297Z,20.40
2023-05-05T14:43:57.232Z,20.42
2023-05-05T14:46:24.151Z,20.43
2023-05-05T14:48:51.127Z,20.43
2023-05-05T14:51:18.015Z,20.37
2023-05-05T14:53:44.960Z,20.44
2023-05-05T14:56:11.846Z,20.39
2023-05-05T14:58:38.744Z,20.44
2023-05-05T15:01:05.776Z,20.42
2023-05-05T15:03:32.851Z,20.45
2023-05-05T15:05:59.932Z,20.46
2023-05-05T15:08:26.772Z,20.40
2023-05-05T15:10:53.638Z,20.42
2023-05-05T15:13:20.562Z,20.39
2023-05-05T15:15:48.363Z,20.35
2023-05-05T15:18:15.440Z,20.33
2023-05-05T15:20:42.241Z,20.30
2023-05-05T15:23:09.368Z,20.26
2023-05-05T15:25:36.539Z,20.18
2023-05-05T15:28:03.389Z,20.24
2023-05-05T15:30:30.355Z,20.19
2023-05-05T15:32:57.273Z,20.16
2023-05-05T15:35:25.529Z,20.06
2023-05-05T15:37:53.453Z,20.14
2023-05-05T15:40:20.344Z,20.09
2023-05-05T15:42:49.635Z,20.07
2023-05-05T15:45:17.059Z,20.05
2023-05-05T15:47:43.995Z,20.02
2023-05-05T15:50:11.036Z,19.98
2023-05-05T15:52:38.564Z,19.94
2023-05-05T15:55:06.697Z,19.95
2023-05-05T15:57:34.250Z,19.92
2023-05-05T16:00:01.526Z,19.88
2023-05-05T16:02:28.521Z,19.91
2023-05-05T16:04:55.479Z,19.90
2023-05-05T16:07:22.283Z,19.87
2023-05-05T16:09:49.159Z,19.83
2023-05-05T16:12:16.022Z,19.77
2023-05-05T16:14:42.830Z,19.74
2023-05-05T16:17:09.694Z,19.72
2023-05-05T16:19:36.633Z,19.70
2023-05-05T16:22:03.706Z,19.72
2023-05-05T16:24:30.584Z,19.66
2023-05-05T16:26:57.366Z,19.62
2023-05-05T16:29:24.179Z,19.59
2023-05-05T16:31:51.015Z,19.60
2023-05-05T16:34:17.851Z,19.47
2023-05-05T16:36:44.971Z,19.41
2023-05-05T16:39:11.956Z,19.33
2023-05-05T16:41:38.864Z,19.12
2023-05-05T16:44:06.366Z,19.04
2023-05-05T16:46:37.414Z,19.15
2023-05-05T16:49:04.503Z,19.15
2023-05-05T16:51:31.529Z,19.05
2023-05-05T16:53:58.374Z,19.03
2023-05-05T16:56:25.417Z,19.16
2023-05-05T16:58:52.637Z,18.92
2023-05-05T17:01:19.494Z,18.82
2023-05-05T17:03:46.357Z,18.83
2023-05-05T17:06:13.249Z,18.75
2023-05-05T17:08:40.146Z,18.60
2023-05-05T17:11:06.977Z,18.49
2023-05-05T17:13:34.008Z,18.42
2023-05-05T17:16:00.975Z,18.35
2023-05-05T17:18:28.043Z,18.24
2023-05-05T17:20:54.926Z,18.20
2023-05-05T17:23:21.883Z,18.16
2023-05-05T17:25:48.784Z,18.13
2023-05-05T17:28:17.226Z,18.13
2023-05-05T17:30:44.278Z,18.12
2023-05-05T17:33:11.360Z,18.13
2023-05-05T17:35:38.845Z,18.03
2023-05-05T17:38:05.821Z,17.98
2023-05-05T17:40:32.757Z,17.96
2023-05-05T17:42:59.669Z,17.97
2023-05-05T17:45:26.702Z,17.94
2023-05-05T17:47:53.728Z,17.94
2023-05-05T17:50:20.645Z,17.90
2023-05-05T17:52:47.556Z,17.93
2023-05-05T17:55:14.516Z,17.81
2023-05-05T17:57:41.386Z,17.70
2023-05-05T18:00:09.067Z,17.66
2023-05-05T18:02:37.129Z,17.85
2023-05-05T18:05:04.991Z,17.75
2023-05-05T18:07:33.579Z,17.81
2023-05-05T18:10:00.479Z,17.71
2023-05-05T18:12:27.310Z,17.76
2023-05-05T18:14:54.132Z,17.73
2023-05-05T18:17:21.182Z,17.72
2023-05-05T18:19:49.239Z,17.65
2023-05-05T18:22:16.353Z,17.47
2023-05-05T18:24:43.227Z,17.56
2023-05-05T18:27:10.231Z,17.50
2023-05-05T18:29:37.177Z,17.49
2023-05-05T18:32:06.439Z,17.40
2023-05-05T18:34:33.351Z,17.45
2023-05-05T18:37:00.523Z,17.33
2023-05-05T18:39:28.099Z,17.49
2023-05-05T18:41:54.997Z,17.42
2023-05-05T18:44:21.883Z,17.41
2023-05-05T18:46:49.015Z,17.42
2023-05-05T18:49:16.280Z,17.35
2023-05-05T18:51:43.762Z,17.36
2023-05-05T18:54:10.717Z,17.20
2023-05-05T18:56:37.548Z,17.32
2023-05-05T18:59:04.840Z,17.21
2023-05-05T19:01:32.681Z,17.26
2023-05-05T19:03:59.643Z,17.18
2023-05-05T19:06:27.325Z,17.22
2023-05-05T19:08:55.352Z,17.18
2023-05-05T19:11:22.821Z,17.24
2023-05-05T19:13:49.658Z,17.22
2023-05-05T19:16:17.152Z,17.22
2023-05-05T19:18:44.166Z,17.15
2023-05-05T19:21:11.008Z,17.18
2023-05-05T19:23:38.241Z,17.16
2023-05-05T19:26:05.661Z,17.16
2023-05-05T19:28:32.983Z,17.10
2023-05-05T19:30:59.871Z,17.15
2023-05-05T19:33:26.745Z,17.09
2023-05-05T19:35:53.728Z,17.08
2023-05-05T19:38:20.571Z,17.04
2023-05-05T19:40:47.478Z,17.03
2023-05-05T19:43:14.380Z,16.98
2023-05-05T19:45:41.491Z,17.02
2023-05-05T19:48:08.480Z,17.00
2023-05-05T19:50:35.372Z,17.01
2023-05-05T19:53:03.925Z,16.98
2023-05-05T19:55:32.062Z,17.02
2023-05-05T19:57:58.940Z,17.01
2023-05-05T20:00:25.996Z,17.02
2023-05-05T20:02:52.889Z,16.99
2023-05-05T20:05:19.775Z,16.96
2023-05-05T20:07:46.972Z,16.78
2023-05-05T20:10:14.101Z,16.94
2023-05-05T20:12:48.378Z,16.90
2023-05-05T20:15:19.528Z,16.90
2023-05-05T20:17:49.861Z,16.89
2023-05-05T20:20:21.245Z,16.87
2023-05-05T20:22:49.063Z,16.88
2023-05-05T20:25:16.387Z,16.81
2023-05-05T20:27:44.264Z,16.83
2023-05-05T20:30:12.244Z,16.81
2023-05-05T20:32:39.327Z,16.69
2023-05-05T20:35:07.286Z,16.77
2023-05-05T20:37:34.198Z,16.77
2023-05-05T20:40:01.079Z,16.73
2023-05-05T20:42:29.567Z,16.71
2023-05-05T20:44:56.691Z,16.74
2023-05-05T20:47:24.222Z,16.72
2023-05-05T20:49:52.221Z,16.71
2023-05-05T20:52:19.626Z,16.69
2023-05-05T20:54:46.467Z,16.71
2023-05-05T20:57:13.349Z,16.68
2023-05-05T20:59:40.200Z,16.68
2023-05-05T21:02:07.762Z,16.63
2023-05-05T21:04:34.861Z,16.67
2023-05-05T21:07:01.701Z,16.66
2023-05-05T21:09:28.904Z,16.54
2023-05-05T21:11:55.838Z,16.57
2023-05-05T21:14:23.357Z,16.58
2023-05-05T21:16:50.301Z,16.50
2023-05-05T21:19:17.305Z,16.54
2023-05-05T21:21:44.278Z,16.56
2023-05-05T21:24:12.928Z,16.54
2023-05-05T21:26:45.604Z,16.36
2023-05-05T21:29:12.409Z,16.48
2023-05-05T21:31:39.296Z,16.43
2023-05-05T21:34:06.192Z,16.49
2023-05-05T21:36:33.751Z,16.46
2023-05-05T21:39:00.974Z,16.51
2023-05-05T21:41:27.973Z,16.47
2023-05-05T21:43:54.813Z,16.51
2023-05-05T21:46:21.718Z,16.46
2023-05-05T21:48:48.620Z,16.51
2023-05-05T21:51:15.454Z,16.50
2023-05-05T21:53:42.316Z,16.52
2023-05-05T21:56:09.357Z,16.51
2023-05-05T21:58:36.268Z,16.47
2023-05-05T22:01:03.123Z,16.49
2023-05-05T22:03:30.056Z,16.51
2023-05-05T22:05:57.156Z,16.44
2023-05-05T22:08:24.056Z,16.51
2023-05-05T22:10:50.839Z,16.51
2023-05-05T22:13:17.792Z,16.51
2023-05-05T22:15:47.099Z,16.51
2023-05-05T22:18:15.202Z,16.47
2023-05-05T22:20:42.154Z,16.46
2023-05-05T22:23:09.117Z,16.44
2023-05-05T22:25:36.121Z,16.44
2023-05-05T22:28:03.080Z,16.39
2023-05-05T22:30:29.899Z,16.35
2023-05-05T22:32:56.964Z,16.38
2023-05-05T22:35:23.881Z,16.39
2023-05-05T22:37:50.759Z,16.40
2023-05-05T22:40:17.704Z,16.41
2023-05-05T22:42:44.727Z,16.41
2023-05-05T22:45:12.073Z,16.40
2023-05-05T22:47:39.188Z,16.41
2023-05-05T22:50:07.716Z,16.34
2023-05-05T22:52:34.694Z,16.37
2023-05-05T22:55:01.519Z,16.38
2023-05-05T22:57:28.421Z,16.36
2023-05-05T22:59:55.354Z,16.32
2023-05-05T23:02:22.268Z,16.37
2023-05-05T23:04:49.214Z,16.37
2023-05-05T23:07:16.097Z,16.27
2023-05-05T23:09:42.883Z,16.36
2023-05-05T23:12:09.833Z,16.34
2023-05-05T23:14:36.712Z,16.32
2023-05-05T23:17:03.783Z,16.31
2023-05-05T23:19:32.635Z,16.28
2023-05-05T23:22:00.406Z,16.22
2023-05-05T23:24:28.144Z,16.28
2023-05-05T23:26:58.093Z,16.20
2023-05-05T23:29:24.935Z,16.27
2023-05-05T23:31:51.744Z,16.25
2023-05-05T23:34:18.598Z,16.25
2023-05-05T23:36:45.587Z,16.19
2023-05-05T23:39:12.413Z,16.26
2023-05-05T23:41:39.177Z,16.26
2023-05-05T23:44:06.059Z,16.28
2023-05-05T23:46:32.868Z,16.30
2023-05-05T23:48:59.684Z,16.32
2023-05-05T23:51:27.659Z,16.28
2023-05-05T23:53:56.834Z,16.25
2023-05-05T23:56:24.426Z,16.23
2023-05-05T23:58:52.512Z,16.28
